Terminal Aerodrome Forecast
Issued by NWS Tuscon, AZ

Home | Current Version | Previous Version | Text Only | Print | Product List | Glossary On
Versions: 1 2 3 4 5 6 7 8 9 10 11 12 13 14 15 16 17
601
FTUS45 KTWC 221734
TAFDUG
TAF
KDUG 221734Z 2218/2318 32014G22KT P6SM FEW120 SCT250
     FM230300 28010KT P6SM SCT150
     FM230900 11008KT P6SM FEW150
     FM231600 31008KT P6SM FEW120=

USA.gov is the U.S. government's official web portal to all federal, state and local government web resources and services.